Moscow Domodedovo, Russia

3:40 PM MSK on March 01, 2015 (GMT +0300)
Domodedovo | Change Station
CLOSE
Current Station
Airport
Location: Moscow Domodedovo,
Elevation: 587 ft
Nearby Weather Stations

Elev 587 ft 55.41 °N, 37.91 °E | Updated 10 minutes ago

Light Freezing Drizzle
Light Freezing Drizzle Mist
32 °F
Feels Like 23 °F
N
11
Wind Variable Wind from SSE

Today
High -- | Low -- °F
--% Chance of Precip.
Yesterday
High -- | Low -- °F
Precip. -- in
7:20 AM 6:02 PM
Waxing Gibbous, 85% visible
Pressure 30.09 in
Visibility 1.8 miles
Clouds Overcast 400 ft
Windchill 23 °F
Dew Point 32 °F
Humidity 100%
Rainfall 0.00 in
Snow Depth Not available.
UV 0 out of 12
Pollen Not available.
Air Quality Not available.
Flu Activity Not available.
METAR UUDD 011230Z 16005MPS 2900 -FZDZ BR OVC004 M00/M00 Q1019 64290095 14290095 TEMPO 2000 FZDZ

More Conditions Fewer Conditions

Pressure 30.09 in
Visibility 1.8 miles
Clouds Overcast 400 ft
Windchill 23 °F
Dew Point 32 °F
Humidity 100%
Rainfall 0.00 in
Snow Depth Not available.
UV 0 out of 12
Pollen Not available.
Air Quality Not available.
Flu Activity Not available.
METAR UUDD 011230Z 16005MPS 2900 -FZDZ BR OVC004 M00/M00 Q1019 64290095 14290095 TEMPO 2000 FZDZ

More Conditions Fewer Conditions

10-Day Weather Forecast

Almanac

Astronomy

Mar. 01, 2015 Rise Set
Actual Time
Civil Twilight
Nautical Twilight
Astronomical Twilight
Moon
Length of Visible Light
Length of Day
Tomorrow will be .
, % of the Moon is Illuminated

Today's Extremes

Country Highs Country Lows

Community

WunderPhotos

Upload Photos

1,801,371 photos uploaded!

WunderBlogs® & News

Nearby

Air Quality

  Air Quality AQ Index Pollutant
Not available.

Snow Depth

Station Depth Elevation

Earthquake Activity

City Distance Mag. Time & Date
Minimum magnitude displayed is 2.5.

Coastal Water Temperatures

Place Temperature

Nearby Weather Stations